PWSweather.com
Personal Weather Stations
Station Observations
WATERF01
WaterfordIE

WaterfordIE

Lat: 52.2412507, Lon: -7.1414691

Elevation: 65

Station Type: Davis Vantage Vue

www.waterfordweather.com

High Low Average
Temperature 73.6°F23.1°C 60.6°F15.9°C 65.4°F18.6°C
Dew Point 58.6°F14.8°C 53.1°F11.7°C 55.5°F13.1°C
Winds 9.2 mph 14.8 kmh Calm Calm 3.0 mph WSW4.8 kmh WSW
Wind Gusts 13.8 mph22.2 kmh -- 6.0 mph9.7 kmh
Humidity 83% 52% 71%
Pressure 30.22 in1023.4 mb 30.18 in1022.0 mb -
Precipitation 0.00 in0.0 mm - -
Hour Temp Dew Point Humidity Winds Wind Gusts Pressure Precip Precip Rate Daily Precip Total
12:00 AM 62.2°F16.8°C 55.6°F13.1°C 79% Calm Calm -- 30.20 in1022.7 mb - 0.00 in0.0 mm 0.00 in0.0 mm
12:10 AM 62.3°F16.8°C 55.7°F13.2°C 79% Calm Calm -- 30.20 in1022.7 mb - 0.00 in0.0 mm 0.00 in0.0 mm
12:20 AM 62.4°F16.9°C 56.1°F13.4°C 80% 1.2 mph SW1.9 kmh SW 2.3 mph3.7 kmh 30.20 in1022.7 mb - 0.00 in0.0 mm 0.00 in0.0 mm
12:30 AM 62.4°F16.9°C 56.1°F13.4°C 80% Calm Calm -- 30.20 in1022.7 mb - 0.00 in0.0 mm 0.00 in0.0 mm
12:40 AM 62.3°F16.8°C 56.0°F13.3°C 80% Calm Calm 2.3 mph3.7 kmh 30.20 in1022.7 mb - 0.00 in0.0 mm 0.00 in0.0 mm
12:50 AM 62.5°F16.9°C 56.2°F13.4°C 80% 1.2 mph SW1.9 kmh SW 4.6 mph7.4 kmh 30.20 in1022.7 mb - 0.00 in0.0 mm 0.00 in0.0 mm
01:00 AM 62.7°F17.1°C 56.4°F13.6°C 80% 2.3 mph SW3.7 kmh SW 5.8 mph9.3 kmh 30.20 in1022.7 mb - 0.00 in0.0 mm 0.00 in0.0 mm
01:10 AM 62.8°F17.1°C 56.5°F13.6°C 80% Calm Calm 2.3 mph3.7 kmh 30.20 in1022.7 mb - 0.00 in0.0 mm 0.00 in0.0 mm
01:20 AM 63.1°F17.3°C 56.5°F13.6°C 79% 2.3 mph SW3.7 kmh SW 5.8 mph9.3 kmh 30.20 in1022.7 mb - 0.00 in0.0 mm 0.00 in0.0 mm
01:30 AM 63.2°F17.3°C 56.6°F13.7°C 79% 2.3 mph SW3.7 kmh SW 4.6 mph7.4 kmh 30.20 in1022.7 mb - 0.00 in0.0 mm 0.00 in0.0 mm
01:40 AM 63.3°F17.4°C 56.7°F13.7°C 79% 1.2 mph SW1.9 kmh SW 2.3 mph3.7 kmh 30.20 in1022.7 mb - 0.00 in0.0 mm 0.00 in0.0 mm
01:50 AM 63.3°F17.4°C 56.7°F13.7°C 79% 2.3 mph WSW3.7 kmh WSW 5.8 mph9.3 kmh 30.20 in1022.7 mb - 0.00 in0.0 mm 0.00 in0.0 mm
02:00 AM 63.4°F17.4°C 56.8°F13.8°C 79% Calm Calm -- 30.20 in1022.7 mb - 0.00 in0.0 mm 0.00 in0.0 mm
02:10 AM 63.4°F17.4°C 56.4°F13.6°C 78% 1.2 mph SW1.9 kmh SW 2.3 mph3.7 kmh 30.20 in1022.7 mb - 0.00 in0.0 mm 0.00 in0.0 mm
02:20 AM 63.4°F17.4°C 56.4°F13.6°C 78% Calm Calm 2.3 mph3.7 kmh 30.20 in1022.7 mb - 0.00 in0.0 mm 0.00 in0.0 mm
02:30 AM 63.3°F17.4°C 56.3°F13.5°C 78% 2.3 mph SW3.7 kmh SW 5.8 mph9.3 kmh 30.20 in1022.7 mb - 0.00 in0.0 mm 0.00 in0.0 mm
02:40 AM 63.3°F17.4°C 56.3°F13.5°C 78% Calm Calm 2.3 mph3.7 kmh 30.20 in1022.7 mb - 0.00 in0.0 mm 0.00 in0.0 mm
02:50 AM 63.2°F17.3°C 56.3°F13.5°C 78% 1.2 mph SW1.9 kmh SW 4.6 mph7.4 kmh 30.20 in1022.7 mb - 0.00 in0.0 mm 0.00 in0.0 mm
03:00 AM 63.2°F17.3°C 56.2°F13.4°C 78% 2.3 mph WSW3.7 kmh WSW 4.6 mph7.4 kmh 30.20 in1022.7 mb - 0.00 in0.0 mm 0.00 in0.0 mm
03:10 AM 63.0°F17.2°C 56.0°F13.3°C 78% 2.3 mph NNW3.7 kmh NNW 5.8 mph9.3 kmh 30.20 in1022.7 mb - 0.00 in0.0 mm 0.00 in0.0 mm
03:20 AM 62.8°F17.1°C 56.2°F13.4°C 79% 3.5 mph N5.6 kmh N 5.8 mph9.3 kmh 30.20 in1022.7 mb - 0.00 in0.0 mm 0.00 in0.0 mm
03:30 AM 62.7°F17.1°C 56.1°F13.4°C 79% 2.3 mph NNW3.7 kmh NNW 5.8 mph9.3 kmh 30.20 in1022.7 mb - 0.00 in0.0 mm 0.00 in0.0 mm
03:40 AM 62.5°F16.9°C 55.5°F13.1°C 78% 2.3 mph NW3.7 kmh NW 2.3 mph3.7 kmh 30.20 in1022.7 mb - 0.00 in0.0 mm 0.00 in0.0 mm
03:50 AM 62.3°F16.8°C 55.4°F13.0°C 78% 2.3 mph NNW3.7 kmh NNW 5.8 mph9.3 kmh 30.20 in1022.7 mb - 0.00 in0.0 mm 0.00 in0.0 mm
04:00 AM 62.0°F16.7°C 55.1°F12.8°C 78% 1.2 mph NW1.9 kmh NW 2.3 mph3.7 kmh 30.20 in1022.7 mb - 0.00 in0.0 mm 0.00 in0.0 mm
04:10 AM 61.7°F16.5°C 54.8°F12.7°C 78% 2.3 mph NW3.7 kmh NW 5.8 mph9.3 kmh 30.20 in1022.7 mb - 0.00 in0.0 mm 0.00 in0.0 mm
04:20 AM 61.5°F16.4°C 54.6°F12.6°C 78% 2.3 mph NW3.7 kmh NW 4.6 mph7.4 kmh 30.20 in1022.7 mb - 0.00 in0.0 mm 0.00 in0.0 mm
04:30 AM 61.4°F16.3°C 54.8°F12.7°C 79% 3.5 mph NW5.6 kmh NW 5.8 mph9.3 kmh 30.20 in1022.7 mb - 0.00 in0.0 mm 0.00 in0.0 mm
04:40 AM 61.3°F16.3°C 54.7°F12.6°C 79% 1.2 mph NW1.9 kmh NW 5.8 mph9.3 kmh 30.20 in1022.7 mb - 0.00 in0.0 mm 0.00 in0.0 mm
04:50 AM 61.1°F16.2°C 54.5°F12.5°C 79% 2.3 mph NW3.7 kmh NW 5.8 mph9.3 kmh 30.20 in1022.7 mb - 0.00 in0.0 mm 0.00 in0.0 mm
05:00 AM 61.0°F16.1°C 54.4°F12.4°C 79% 3.5 mph NNW5.6 kmh NNW 8.1 mph13.0 kmh 30.20 in1022.7 mb - 0.00 in0.0 mm 0.00 in0.0 mm
05:10 AM 60.9°F16.1°C 54.3°F12.4°C 79% 4.6 mph NNW7.4 kmh NNW 6.9 mph11.1 kmh 30.20 in1022.7 mb - 0.00 in0.0 mm 0.00 in0.0 mm
05:20 AM 60.8°F16.0°C 54.2°F12.3°C 79% 3.5 mph NW5.6 kmh NW 5.8 mph9.3 kmh 30.20 in1022.7 mb - 0.00 in0.0 mm 0.00 in0.0 mm
05:30 AM 61.1°F16.2°C 54.2°F12.3°C 78% 3.5 mph N5.6 kmh N 6.9 mph11.1 kmh 30.20 in1022.7 mb - 0.00 in0.0 mm 0.00 in0.0 mm
05:40 AM 61.2°F16.2°C 54.3°F12.4°C 78% 1.2 mph NNW1.9 kmh NNW 5.8 mph9.3 kmh 30.20 in1022.7 mb - 0.00 in0.0 mm 0.00 in0.0 mm
05:50 AM 61.5°F16.4°C 53.9°F12.2°C 76% 1.2 mph NNW1.9 kmh NNW 4.6 mph7.4 kmh 30.21 in1023.0 mb - 0.00 in0.0 mm 0.00 in0.0 mm
06:00 AM 61.9°F16.6°C 53.9°F12.2°C 75% 3.5 mph NNW5.6 kmh NNW 5.8 mph9.3 kmh 30.21 in1023.0 mb - 0.00 in0.0 mm 0.00 in0.0 mm
06:10 AM 62.2°F16.8°C 53.8°F12.1°C 74% 2.3 mph E3.7 kmh E 5.8 mph9.3 kmh 30.21 in1023.0 mb - 0.00 in0.0 mm 0.00 in0.0 mm
06:20 AM 62.5°F16.9°C 54.1°F12.3°C 74% 2.3 mph N3.7 kmh N 6.9 mph11.1 kmh 30.21 in1023.0 mb - 0.00 in0.0 mm 0.00 in0.0 mm
06:30 AM 62.6°F17.0°C 53.5°F11.9°C 72% 3.5 mph NW5.6 kmh NW 8.1 mph13.0 kmh 30.21 in1023.0 mb - 0.00 in0.0 mm 0.00 in0.0 mm
06:40 AM 62.4°F16.9°C 53.6°F12.0°C 73% 2.3 mph NW3.7 kmh NW 4.6 mph7.4 kmh 30.21 in1023.0 mb - 0.00 in0.0 mm 0.00 in0.0 mm
06:50 AM 62.2°F16.8°C 53.4°F11.9°C 73% 2.3 mph NW3.7 kmh NW 5.8 mph9.3 kmh 30.22 in1023.4 mb - 0.00 in0.0 mm 0.00 in0.0 mm
07:00 AM 62.4°F16.9°C 53.3°F11.8°C 72% 3.5 mph N5.6 kmh N 6.9 mph11.1 kmh 30.21 in1023.0 mb - 0.00 in0.0 mm 0.00 in0.0 mm
07:10 AM 62.5°F16.9°C 53.7°F12.1°C 73% 1.2 mph NW1.9 kmh NW 4.6 mph7.4 kmh 30.21 in1023.0 mb - 0.00 in0.0 mm 0.00 in0.0 mm
07:20 AM 62.8°F17.1°C 53.3°F11.8°C 71% 4.6 mph NNW7.4 kmh NNW 6.9 mph11.1 kmh 30.21 in1023.0 mb - 0.00 in0.0 mm 0.00 in0.0 mm
07:30 AM 62.9°F17.2°C 53.3°F11.8°C 71% 2.3 mph NW3.7 kmh NW 8.1 mph13.0 kmh 30.21 in1023.0 mb - 0.00 in0.0 mm 0.00 in0.0 mm
07:40 AM 63.2°F17.3°C 53.6°F12.0°C 71% 3.5 mph NNW5.6 kmh NNW 8.1 mph13.0 kmh 30.21 in1023.0 mb - 0.00 in0.0 mm 0.00 in0.0 mm
07:50 AM 63.1°F17.3°C 53.6°F12.0°C 71% 5.8 mph N9.3 kmh N 8.1 mph13.0 kmh 30.21 in1023.0 mb - 0.00 in0.0 mm 0.00 in0.0 mm
08:00 AM 63.7°F17.6°C 53.8°F12.1°C 70% 3.5 mph WNW5.6 kmh WNW 8.1 mph13.0 kmh 30.21 in1023.0 mb - 0.00 in0.0 mm 0.00 in0.0 mm
08:10 AM 63.8°F17.7°C 53.4°F11.9°C 69% 8.1 mph NW13.0 kmh NW 12.7 mph20.4 kmh 30.21 in1023.0 mb - 0.00 in0.0 mm 0.00 in0.0 mm
08:20 AM 63.8°F17.7°C 53.9°F12.2°C 70% 3.5 mph NNW5.6 kmh NNW 6.9 mph11.1 kmh 30.21 in1023.0 mb - 0.00 in0.0 mm 0.00 in0.0 mm
08:30 AM 64.3°F17.9°C 53.9°F12.2°C 69% 5.8 mph N9.3 kmh N 8.1 mph13.0 kmh 30.21 in1023.0 mb - 0.00 in0.0 mm 0.00 in0.0 mm
08:40 AM 64.2°F17.9°C 53.4°F11.9°C 68% 5.8 mph NW9.3 kmh NW 9.2 mph14.8 kmh 30.21 in1023.0 mb - 0.00 in0.0 mm 0.00 in0.0 mm
08:50 AM 64.3°F17.9°C 53.5°F11.9°C 68% 6.9 mph NNW11.1 kmh NNW 11.5 mph18.5 kmh 30.21 in1023.0 mb - 0.00 in0.0 mm 0.00 in0.0 mm
09:00 AM 64.3°F17.9°C 53.1°F11.7°C 67% 9.2 mph NW14.8 kmh NW 11.5 mph18.5 kmh 30.21 in1023.0 mb - 0.00 in0.0 mm 0.00 in0.0 mm
09:10 AM 64.5°F18.1°C 53.7°F12.1°C 68% 3.5 mph N5.6 kmh N 6.9 mph11.1 kmh 30.21 in1023.0 mb - 0.00 in0.0 mm 0.00 in0.0 mm
09:20 AM 65.1°F18.4°C 53.5°F11.9°C 66% 5.8 mph NNW9.3 kmh NNW 11.5 mph18.5 kmh 30.21 in1023.0 mb - 0.00 in0.0 mm 0.00 in0.0 mm
09:30 AM 65.3°F18.5°C 54.1°F12.3°C 67% 5.8 mph NW9.3 kmh NW 10.4 mph16.7 kmh 30.21 in1023.0 mb - 0.00 in0.0 mm 0.00 in0.0 mm
09:40 AM 66.5°F19.2°C 54.8°F12.7°C 66% 2.3 mph N3.7 kmh N 5.8 mph9.3 kmh 30.21 in1023.0 mb - 0.00 in0.0 mm 0.00 in0.0 mm
09:50 AM 67.9°F19.9°C 55.3°F12.9°C 64% 4.6 mph NNW7.4 kmh NNW 8.1 mph13.0 kmh 30.21 in1023.0 mb - 0.00 in0.0 mm 0.00 in0.0 mm
10:00 AM 67.1°F19.5°C 54.5°F12.5°C 64% 5.8 mph NW9.3 kmh NW 9.2 mph14.8 kmh 30.21 in1023.0 mb - 0.00 in0.0 mm 0.00 in0.0 mm
10:10 AM 67.0°F19.4°C 54.4°F12.4°C 64% 2.3 mph N3.7 kmh N 11.5 mph18.5 kmh 30.21 in1023.0 mb - 0.00 in0.0 mm 0.00 in0.0 mm
10:20 AM 67.6°F19.8°C 54.1°F12.3°C 62% 3.5 mph NW5.6 kmh NW 2.3 mph3.7 kmh 30.21 in1023.0 mb - 0.00 in0.0 mm 0.00 in0.0 mm
10:30 AM 67.7°F19.8°C 54.3°F12.4°C 62% 5.8 mph NW9.3 kmh NW 9.2 mph14.8 kmh 30.21 in1023.0 mb - 0.00 in0.0 mm 0.00 in0.0 mm
10:40 AM 67.9°F19.9°C 54.4°F12.4°C 62% 5.8 mph NW9.3 kmh NW 5.8 mph9.3 kmh 30.21 in1023.0 mb - 0.00 in0.0 mm 0.00 in0.0 mm
10:50 AM 68.0°F20.0°C 54.1°F12.3°C 61% 6.9 mph NNW11.1 kmh NNW 13.8 mph22.2 kmh 30.21 in1023.0 mb - 0.00 in0.0 mm 0.00 in0.0 mm
11:00 AM 69.0°F20.6°C 54.5°F12.5°C 60% 6.9 mph N11.1 kmh N 11.5 mph18.5 kmh 30.21 in1023.0 mb - 0.00 in0.0 mm 0.00 in0.0 mm
11:10 AM 69.0°F20.6°C 54.5°F12.5°C 60% 3.5 mph NW5.6 kmh NW 5.8 mph9.3 kmh 30.21 in1023.0 mb - 0.00 in0.0 mm 0.00 in0.0 mm
11:20 AM 69.4°F20.8°C 54.9°F12.7°C 60% 5.8 mph NW9.3 kmh NW 8.1 mph13.0 kmh 30.21 in1023.0 mb - 0.00 in0.0 mm 0.00 in0.0 mm
11:30 AM 69.4°F20.8°C 54.9°F12.7°C 60% 6.9 mph NW11.1 kmh NW 11.5 mph18.5 kmh 30.21 in1023.0 mb - 0.00 in0.0 mm 0.00 in0.0 mm
11:40 AM 69.7°F20.9°C 55.7°F13.2°C 61% 4.6 mph NNW7.4 kmh NNW 6.9 mph11.1 kmh 30.21 in1023.0 mb - 0.00 in0.0 mm 0.00 in0.0 mm
11:50 AM 71.9°F22.2°C 55.3°F12.9°C 56% 3.5 mph N5.6 kmh N 8.1 mph13.0 kmh 30.20 in1022.7 mb - 0.00 in0.0 mm 0.00 in0.0 mm
12:00 PM 70.1°F21.2°C 55.1°F12.8°C 59% 5.8 mph N9.3 kmh N 9.2 mph14.8 kmh 30.20 in1022.7 mb - 0.00 in0.0 mm 0.00 in0.0 mm
12:10 PM 69.8°F21.0°C 54.9°F12.7°C 59% 2.3 mph N3.7 kmh N 13.8 mph22.2 kmh 30.20 in1022.7 mb - 0.00 in0.0 mm 0.00 in0.0 mm
12:20 PM 69.7°F20.9°C 54.8°F12.7°C 59% 2.3 mph NW3.7 kmh NW 5.8 mph9.3 kmh 30.21 in1023.0 mb - 0.00 in0.0 mm 0.00 in0.0 mm
12:30 PM 69.3°F20.7°C 54.8°F12.7°C 60% 2.3 mph N3.7 kmh N 6.9 mph11.1 kmh 30.21 in1023.0 mb - 0.00 in0.0 mm 0.00 in0.0 mm
12:40 PM 70.0°F21.1°C 55.1°F12.8°C 59% 3.5 mph NNW5.6 kmh NNW 8.1 mph13.0 kmh 30.20 in1022.7 mb - 0.00 in0.0 mm 0.00 in0.0 mm
12:50 PM 69.4°F20.8°C 54.9°F12.7°C 60% 4.6 mph NW7.4 kmh NW 11.5 mph18.5 kmh 30.20 in1022.7 mb - 0.00 in0.0 mm 0.00 in0.0 mm
01:00 PM 69.6°F20.9°C 54.6°F12.6°C 59% 1.2 mph NW1.9 kmh NW 5.8 mph9.3 kmh 30.20 in1022.7 mb - 0.00 in0.0 mm 0.00 in0.0 mm
01:10 PM 69.6°F20.9°C 54.2°F12.3°C 58% 8.1 mph NW13.0 kmh NW 11.5 mph18.5 kmh 30.20 in1022.7 mb - 0.00 in0.0 mm 0.00 in0.0 mm
01:20 PM 69.7°F20.9°C 54.3°F12.4°C 58% 2.3 mph NNE3.7 kmh NNE 8.1 mph13.0 kmh 30.20 in1022.7 mb - 0.00 in0.0 mm 0.00 in0.0 mm
01:30 PM 70.1°F21.2°C 55.1°F12.8°C 59% 4.6 mph N7.4 kmh N 11.5 mph18.5 kmh 30.20 in1022.7 mb - 0.00 in0.0 mm 0.00 in0.0 mm
01:40 PM 70.6°F21.4°C 55.1°F12.8°C 58% 2.3 mph N3.7 kmh N 5.8 mph9.3 kmh 30.20 in1022.7 mb - 0.00 in0.0 mm 0.00 in0.0 mm
01:50 PM 70.1°F21.2°C 54.6°F12.6°C 58% 4.6 mph NW7.4 kmh NW 9.2 mph14.8 kmh 30.20 in1022.7 mb - 0.00 in0.0 mm 0.00 in0.0 mm
02:00 PM 70.6°F21.4°C 55.1°F12.8°C 58% 8.1 mph NW13.0 kmh NW 13.8 mph22.2 kmh 30.20 in1022.7 mb - 0.00 in0.0 mm 0.00 in0.0 mm
02:10 PM 70.7°F21.5°C 55.2°F12.9°C 58% 3.5 mph NW5.6 kmh NW 8.1 mph13.0 kmh 30.20 in1022.7 mb - 0.00 in0.0 mm 0.00 in0.0 mm
02:20 PM 71.6°F22.0°C 54.5°F12.5°C 55% 5.8 mph NNW9.3 kmh NNW 9.2 mph14.8 kmh 30.20 in1022.7 mb - 0.00 in0.0 mm 0.00 in0.0 mm
02:30 PM 71.4°F21.9°C 54.9°F12.7°C 56% 4.6 mph NW7.4 kmh NW 8.1 mph13.0 kmh 30.20 in1022.7 mb - 0.00 in0.0 mm 0.00 in0.0 mm
02:40 PM 72.5°F22.5°C 54.9°F12.7°C 54% 4.6 mph NW7.4 kmh NW 8.1 mph13.0 kmh 30.20 in1022.7 mb - 0.00 in0.0 mm 0.00 in0.0 mm
02:50 PM 71.8°F22.1°C 54.8°F12.7°C 55% 3.5 mph NNW5.6 kmh NNW 11.5 mph18.5 kmh 30.19 in1022.4 mb - 0.00 in0.0 mm 0.00 in0.0 mm
03:00 PM 72.1°F22.3°C 55.1°F12.8°C 55% Calm Calm 4.6 mph7.4 kmh 30.19 in1022.4 mb - 0.00 in0.0 mm 0.00 in0.0 mm
03:10 PM 73.2°F22.9°C 55.6°F13.1°C 54% 1.2 mph NNW1.9 kmh NNW 4.6 mph7.4 kmh 30.19 in1022.4 mb - 0.00 in0.0 mm 0.00 in0.0 mm
03:20 PM 73.5°F23.1°C 54.8°F12.7°C 52% 3.5 mph NNE5.6 kmh NNE 6.9 mph11.1 kmh 30.19 in1022.4 mb - 0.00 in0.0 mm 0.00 in0.0 mm
03:30 PM 72.2°F22.3°C 54.6°F12.6°C 54% 1.2 mph WNW1.9 kmh WNW 8.1 mph13.0 kmh 30.19 in1022.4 mb - 0.00 in0.0 mm 0.00 in0.0 mm
03:40 PM 73.6°F23.1°C 55.4°F13.0°C 53% 1.2 mph WNW1.9 kmh WNW 6.9 mph11.1 kmh 30.19 in1022.4 mb - 0.00 in0.0 mm 0.00 in0.0 mm
03:50 PM 73.3°F22.9°C 54.6°F12.6°C 52% Calm Calm 1.2 mph1.9 kmh 30.19 in1022.4 mb - 0.00 in0.0 mm 0.00 in0.0 mm
04:00 PM 72.1°F22.3°C 58.4°F14.7°C 62% 4.6 mph S7.4 kmh S 9.2 mph14.8 kmh 30.19 in1022.4 mb - 0.00 in0.0 mm 0.00 in0.0 mm
04:10 PM 69.8°F21.0°C 57.5°F14.2°C 65% 9.2 mph SE14.8 kmh SE 12.7 mph20.4 kmh 30.19 in1022.4 mb - 0.00 in0.0 mm 0.00 in0.0 mm
04:20 PM 68.6°F20.3°C 57.6°F14.2°C 68% 8.1 mph S13.0 kmh S 11.5 mph18.5 kmh 30.19 in1022.4 mb - 0.00 in0.0 mm 0.00 in0.0 mm
04:30 PM 69.1°F20.6°C 58.1°F14.5°C 68% 6.9 mph SW11.1 kmh SW 11.5 mph18.5 kmh 30.19 in1022.4 mb - 0.00 in0.0 mm 0.00 in0.0 mm
04:40 PM 69.6°F20.9°C 58.6°F14.8°C 68% 6.9 mph WSW11.1 kmh WSW 9.2 mph14.8 kmh 30.19 in1022.4 mb - 0.00 in0.0 mm 0.00 in0.0 mm
04:50 PM 68.9°F20.5°C 57.9°F14.4°C 68% 9.2 mph SSW14.8 kmh SSW 11.5 mph18.5 kmh 30.19 in1022.4 mb - 0.00 in0.0 mm 0.00 in0.0 mm
05:00 PM 69.2°F20.7°C 58.2°F14.6°C 68% 6.9 mph S11.1 kmh S 9.2 mph14.8 kmh 30.19 in1022.4 mb - 0.00 in0.0 mm 0.00 in0.0 mm
05:10 PM 69.6°F20.9°C 58.6°F14.8°C 68% 5.8 mph SW9.3 kmh SW 8.1 mph13.0 kmh 30.19 in1022.4 mb - 0.00 in0.0 mm 0.00 in0.0 mm
05:20 PM 69.4°F20.8°C 58.3°F14.6°C 68% 4.6 mph SW7.4 kmh SW 8.1 mph13.0 kmh 30.19 in1022.4 mb - 0.00 in0.0 mm 0.00 in0.0 mm
05:30 PM 69.6°F20.9°C 58.5°F14.7°C 68% 6.9 mph SSW11.1 kmh SSW 11.5 mph18.5 kmh 30.19 in1022.4 mb - 0.00 in0.0 mm 0.00 in0.0 mm
05:40 PM 68.9°F20.5°C 58.3°F14.6°C 69% 4.6 mph NW7.4 kmh NW 5.8 mph9.3 kmh 30.18 in1022.0 mb - 0.00 in0.0 mm 0.00 in0.0 mm
05:50 PM 69.5°F20.8°C 58.4°F14.7°C 68% 4.6 mph NE7.4 kmh NE 8.1 mph13.0 kmh 30.19 in1022.4 mb - 0.00 in0.0 mm 0.00 in0.0 mm
06:00 PM 69.1°F20.6°C 58.1°F14.5°C 68% 3.5 mph SSW5.6 kmh SSW 8.1 mph13.0 kmh 30.19 in1022.4 mb - 0.00 in0.0 mm 0.00 in0.0 mm
06:10 PM 69.4°F20.8°C 58.4°F14.7°C 68% 5.8 mph SW9.3 kmh SW 8.1 mph13.0 kmh 30.19 in1022.4 mb - 0.00 in0.0 mm 0.00 in0.0 mm
06:20 PM 69.0°F20.6°C 58.0°F14.4°C 68% 5.8 mph WSW9.3 kmh WSW 8.1 mph13.0 kmh 30.19 in1022.4 mb - 0.00 in0.0 mm 0.00 in0.0 mm
06:30 PM 68.4°F20.2°C 57.5°F14.2°C 68% 4.6 mph SSW7.4 kmh SSW 8.1 mph13.0 kmh 30.19 in1022.4 mb - 0.00 in0.0 mm 0.00 in0.0 mm
06:40 PM 67.0°F19.4°C 56.9°F13.8°C 70% 5.8 mph SW9.3 kmh SW 8.1 mph13.0 kmh 30.20 in1022.7 mb - 0.00 in0.0 mm 0.00 in0.0 mm
06:50 PM 65.8°F18.8°C 56.9°F13.8°C 73% 4.6 mph SW7.4 kmh SW 5.8 mph9.3 kmh 30.20 in1022.7 mb - 0.00 in0.0 mm 0.00 in0.0 mm
07:00 PM 64.9°F18.3°C 56.4°F13.6°C 74% 2.3 mph S3.7 kmh S 4.6 mph7.4 kmh 30.20 in1022.7 mb - 0.00 in0.0 mm 0.00 in0.0 mm
07:10 PM 65.5°F18.6°C 57.3°F14.1°C 75% 1.2 mph SW1.9 kmh SW 5.8 mph9.3 kmh 30.20 in1022.7 mb - 0.00 in0.0 mm 0.00 in0.0 mm
07:20 PM 65.7°F18.7°C 56.8°F13.8°C 73% 4.6 mph SSW7.4 kmh SSW 5.8 mph9.3 kmh 30.20 in1022.7 mb - 0.00 in0.0 mm 0.00 in0.0 mm
07:30 PM 65.5°F18.6°C 57.0°F13.9°C 74% 3.5 mph WSW5.6 kmh WSW 5.8 mph9.3 kmh 30.20 in1022.7 mb - 0.00 in0.0 mm 0.00 in0.0 mm
07:40 PM 65.3°F18.5°C 56.8°F13.8°C 74% 4.6 mph SSW7.4 kmh SSW 5.8 mph9.3 kmh 30.20 in1022.7 mb - 0.00 in0.0 mm 0.00 in0.0 mm
07:50 PM 64.5°F18.1°C 56.8°F13.8°C 76% 4.6 mph SSW7.4 kmh SSW 6.9 mph11.1 kmh 30.20 in1022.7 mb - 0.00 in0.0 mm 0.00 in0.0 mm
08:00 PM 64.7°F18.2°C 57.0°F13.9°C 76% 3.5 mph SW5.6 kmh SW 5.8 mph9.3 kmh 30.20 in1022.7 mb - 0.00 in0.0 mm 0.00 in0.0 mm
08:10 PM 64.7°F18.2°C 57.0°F13.9°C 76% 3.5 mph SSW5.6 kmh SSW 5.8 mph9.3 kmh 30.21 in1023.0 mb - 0.00 in0.0 mm 0.00 in0.0 mm
08:20 PM 63.7°F17.6°C 56.7°F13.7°C 78% 3.5 mph SW5.6 kmh SW 4.6 mph7.4 kmh 30.21 in1023.0 mb - 0.00 in0.0 mm 0.00 in0.0 mm
08:30 PM 63.0°F17.2°C 56.4°F13.6°C 79% 1.2 mph SSW1.9 kmh SSW 2.3 mph3.7 kmh 30.21 in1023.0 mb - 0.00 in0.0 mm 0.00 in0.0 mm
08:40 PM 62.5°F16.9°C 56.2°F13.4°C 80% 1.2 mph SSW1.9 kmh SSW 2.3 mph3.7 kmh 30.21 in1023.0 mb - 0.00 in0.0 mm 0.00 in0.0 mm
08:50 PM 62.3°F16.8°C 56.0°F13.3°C 80% Calm Calm 2.3 mph3.7 kmh 30.21 in1023.0 mb - 0.00 in0.0 mm 0.00 in0.0 mm
09:00 PM 62.1°F16.7°C 55.9°F13.3°C 80% Calm Calm 2.3 mph3.7 kmh 30.21 in1023.0 mb - 0.00 in0.0 mm 0.00 in0.0 mm
09:10 PM 61.8°F16.6°C 55.9°F13.3°C 81% Calm Calm 1.2 mph1.9 kmh 30.21 in1023.0 mb - 0.00 in0.0 mm 0.00 in0.0 mm
09:20 PM 61.8°F16.6°C 55.9°F13.3°C 81% Calm Calm 1.2 mph1.9 kmh 30.22 in1023.4 mb - 0.00 in0.0 mm 0.00 in0.0 mm
09:30 PM 61.9°F16.6°C 56.0°F13.3°C 81% Calm Calm -- 30.22 in1023.4 mb - 0.00 in0.0 mm 0.00 in0.0 mm
09:40 PM 61.9°F16.6°C 56.0°F13.3°C 81% Calm Calm 2.3 mph3.7 kmh 30.22 in1023.4 mb - 0.00 in0.0 mm 0.00 in0.0 mm
09:50 PM 61.4°F16.3°C 55.5°F13.1°C 81% Calm Calm -- 30.22 in1023.4 mb - 0.00 in0.0 mm 0.00 in0.0 mm
10:00 PM 61.2°F16.2°C 55.7°F13.2°C 82% Calm Calm -- 30.22 in1023.4 mb - 0.00 in0.0 mm 0.00 in0.0 mm
10:10 PM 61.1°F16.2°C 55.6°F13.1°C 82% Calm Calm -- 30.22 in1023.4 mb - 0.00 in0.0 mm 0.00 in0.0 mm
10:20 PM 61.3°F16.3°C 55.7°F13.2°C 82% Calm Calm -- 30.22 in1023.4 mb - 0.00 in0.0 mm 0.00 in0.0 mm
10:30 PM 61.4°F16.3°C 55.5°F13.1°C 81% Calm Calm -- 30.22 in1023.4 mb - 0.00 in0.0 mm 0.00 in0.0 mm
10:40 PM 61.4°F16.3°C 55.5°F13.1°C 81% Calm Calm -- 30.22 in1023.4 mb - 0.00 in0.0 mm 0.00 in0.0 mm
10:50 PM 61.3°F16.3°C 55.5°F13.1°C 81% Calm Calm -- 30.22 in1023.4 mb - 0.00 in0.0 mm 0.00 in0.0 mm
11:00 PM 61.4°F16.3°C 55.1°F12.8°C 80% Calm Calm -- 30.22 in1023.4 mb - 0.00 in0.0 mm 0.00 in0.0 mm
11:10 PM 61.2°F16.2°C 55.0°F12.8°C 80% Calm Calm -- 30.22 in1023.4 mb - 0.00 in0.0 mm 0.00 in0.0 mm
11:20 PM 61.3°F16.3°C 55.4°F13.0°C 81% Calm Calm -- 30.21 in1023.0 mb - 0.00 in0.0 mm 0.00 in0.0 mm
11:30 PM 61.3°F16.3°C 55.8°F13.2°C 82% Calm Calm -- 30.21 in1023.0 mb - 0.00 in0.0 mm 0.00 in0.0 mm
11:40 PM 61.1°F16.2°C 55.6°F13.1°C 82% Calm Calm -- 30.21 in1023.0 mb - 0.00 in0.0 mm 0.00 in0.0 mm
11:50 PM 60.6°F15.9°C 55.4°F13.0°C 83% Calm Calm -- 30.21 in1023.0 mb - 0.00 in0.0 mm 0.00 in0.0 mm